sensor_id;sensor_type;location;lat;lon;timestamp;temperature;humidity
7349;DHT22;13010;-33.424;-70.614;2023-02-22T00:00:16;21.80;32.90
7349;DHT22;13010;-33.424;-70.614;2023-02-22T00:03:11;21.80;33.80
7349;DHT22;13010;-33.424;-70.614;2023-02-22T00:06:03;21.30;28.80
7349;DHT22;13010;-33.424;-70.614;2023-02-22T00:08:53;21.00;27.50
7349;DHT22;13010;-33.424;-70.614;2023-02-22T00:11:46;20.90;34.80
7349;DHT22;13010;-33.424;-70.614;2023-02-22T00:14:35;21.60;36.60
7349;DHT22;13010;-33.424;-70.614;2023-02-22T00:17:25;22.20;35.80
7349;DHT22;13010;-33.424;-70.614;2023-02-22T00:20:17;21.90;42.30
7349;DHT22;13010;-33.424;-70.614;2023-02-22T00:23:12;21.30;51.50
7349;DHT22;13010;-33.424;-70.614;2023-02-22T00:26:04;20.60;54.00
7349;DHT22;13010;-33.424;-70.614;2023-02-22T00:28:54;20.30;62.00
7349;DHT22;13010;-33.424;-70.614;2023-02-22T00:31:43;19.90;75.00
7349;DHT22;13010;-33.424;-70.614;2023-02-22T00:34:32;19.80;89.00
7349;DHT22;13010;-33.424;-70.614;2023-02-22T00:37:23;19.60;95.20
7349;DHT22;13010;-33.424;-70.614;2023-02-22T00:40:15;20.00;97.10
7349;DHT22;13010;-33.424;-70.614;2023-02-22T00:43:05;20.30;99.90
7349;DHT22;13010;-33.424;-70.614;2023-02-22T00:45:54;20.30;99.00
7349;DHT22;13010;-33.424;-70.614;2023-02-22T00:48:43;20.10;98.50
7349;DHT22;13010;-33.424;-70.614;2023-02-22T00:51:32;20.10;98.70
7349;DHT22;13010;-33.424;-70.614;2023-02-22T00:54:23;20.00;99.50
7349;DHT22;13010;-33.424;-70.614;2023-02-22T00:57:12;20.10;99.90
7349;DHT22;13010;-33.424;-70.614;2023-02-22T01:00:01;20.10;99.90
7349;DHT22;13010;-33.424;-70.614;2023-02-22T01:02:56;19.60;99.90
7349;DHT22;13010;-33.424;-70.614;2023-02-22T01:05:45;19.70;99.90
7349;DHT22;13010;-33.424;-70.614;2023-02-22T01:08:34;19.10;99.90
7349;DHT22;13010;-33.424;-70.614;2023-02-22T01:11:27;18.90;99.90
7349;DHT22;13010;-33.424;-70.614;2023-02-22T01:14:16;18.70;99.90
7349;DHT22;13010;-33.424;-70.614;2023-02-22T01:17:05;19.10;99.90
7349;DHT22;13010;-33.424;-70.614;2023-02-22T01:19:55;19.60;99.90
7349;DHT22;13010;-33.424;-70.614;2023-02-22T01:22:46;19.60;99.90
7349;DHT22;13010;-33.424;-70.614;2023-02-22T01:25:35;19.60;99.90
7349;DHT22;13010;-33.424;-70.614;2023-02-22T01:28:27;19.20;99.90
7349;DHT22;13010;-33.424;-70.614;2023-02-22T01:31:16;19.10;99.90
7349;DHT22;13010;-33.424;-70.614;2023-02-22T01:34:05;18.90;99.90
7349;DHT22;13010;-33.424;-70.614;2023-02-22T01:36:55;18.30;99.90
7349;DHT22;13010;-33.424;-70.614;2023-02-22T01:39:43;17.90;99.90
7349;DHT22;13010;-33.424;-70.614;2023-02-22T01:42:33;17.70;99.90
7349;DHT22;13010;-33.424;-70.614;2023-02-22T01:45:57;17.60;99.90
7349;DHT22;13010;-33.424;-70.614;2023-02-22T01:48:48;17.40;99.90
7349;DHT22;13010;-33.424;-70.614;2023-02-22T01:51:39;17.30;99.90
7349;DHT22;13010;-33.424;-70.614;2023-02-22T01:54:32;17.40;99.90
7349;DHT22;13010;-33.424;-70.614;2023-02-22T01:57:23;17.30;99.90
7349;DHT22;13010;-33.424;-70.614;2023-02-22T02:00:16;17.50;99.90
7349;DHT22;13010;-33.424;-70.614;2023-02-22T02:03:12;17.50;99.90
7349;DHT22;13010;-33.424;-70.614;2023-02-22T02:06:02;17.50;99.90
7349;DHT22;13010;-33.424;-70.614;2023-02-22T02:08:57;17.30;99.90
7349;DHT22;13010;-33.424;-70.614;2023-02-22T02:11:49;17.20;99.90
7349;DHT22;13010;-33.424;-70.614;2023-02-22T02:14:39;17.10;99.90
7349;DHT22;13010;-33.424;-70.614;2023-02-22T02:17:28;17.10;99.90
7349;DHT22;13010;-33.424;-70.614;2023-02-22T02:20:26;17.00;99.90
7349;DHT22;13010;-33.424;-70.614;2023-02-22T02:23:42;17.00;99.90
7349;DHT22;13010;-33.424;-70.614;2023-02-22T02:27:01;16.90;99.90
7349;DHT22;13010;-33.424;-70.614;2023-02-22T02:30:16;16.90;99.90
7349;DHT22;13010;-33.424;-70.614;2023-02-22T02:33:17;17.00;99.90
7349;DHT22;13010;-33.424;-70.614;2023-02-22T02:36:15;17.00;99.90
7349;DHT22;13010;-33.424;-70.614;2023-02-22T02:39:11;17.00;99.90
7349;DHT22;13010;-33.424;-70.614;2023-02-22T02:42:04;17.00;99.90
7349;DHT22;13010;-33.424;-70.614;2023-02-22T02:44:58;17.00;99.90
7349;DHT22;13010;-33.424;-70.614;2023-02-22T02:47:50;17.20;99.90
7349;DHT22;13010;-33.424;-70.614;2023-02-22T02:50:45;17.20;99.90
7349;DHT22;13010;-33.424;-70.614;2023-02-22T02:53:36;17.10;99.90
7349;DHT22;13010;-33.424;-70.614;2023-02-22T02:56:26;17.20;99.90
7349;DHT22;13010;-33.424;-70.614;2023-02-22T02:59:27;17.20;99.90
7349;DHT22;13010;-33.424;-70.614;2023-02-22T03:02:29;17.10;99.90
7349;DHT22;13010;-33.424;-70.614;2023-02-22T03:05:35;16.70;99.90
7349;DHT22;13010;-33.424;-70.614;2023-02-22T03:08:31;16.30;99.90
7349;DHT22;13010;-33.424;-70.614;2023-02-22T03:11:23;16.00;99.90
7349;DHT22;13010;-33.424;-70.614;2023-02-22T03:14:22;15.80;99.90
7349;DHT22;13010;-33.424;-70.614;2023-02-22T03:17:17;15.70;99.90
7349;DHT22;13010;-33.424;-70.614;2023-02-22T03:20:13;15.90;99.90
7349;DHT22;13010;-33.424;-70.614;2023-02-22T03:23:11;16.10;99.90
7349;DHT22;13010;-33.424;-70.614;2023-02-22T03:26:07;16.10;99.90
7349;DHT22;13010;-33.424;-70.614;2023-02-22T03:28:57;16.10;99.90
7349;DHT22;13010;-33.424;-70.614;2023-02-22T03:31:53;16.00;99.90
7349;DHT22;13010;-33.424;-70.614;2023-02-22T03:34:48;15.80;99.90
7349;DHT22;13010;-33.424;-70.614;2023-02-22T03:37:39;15.60;99.90
7349;DHT22;13010;-33.424;-70.614;2023-02-22T03:40:32;15.30;99.90
7349;DHT22;13010;-33.424;-70.614;2023-02-22T03:43:26;15.30;99.90
7349;DHT22;13010;-33.424;-70.614;2023-02-22T03:46:17;15.20;99.90
7349;DHT22;13010;-33.424;-70.614;2023-02-22T03:49:11;15.00;99.90
7349;DHT22;13010;-33.424;-70.614;2023-02-22T03:52:03;15.00;99.90
7349;DHT22;13010;-33.424;-70.614;2023-02-22T03:54:52;14.90;99.90
7349;DHT22;13010;-33.424;-70.614;2023-02-22T03:57:43;15.00;99.90
7349;DHT22;13010;-33.424;-70.614;2023-02-22T04:00:36;15.10;99.90
7349;DHT22;13010;-33.424;-70.614;2023-02-22T04:03:29;14.80;99.90
7349;DHT22;13010;-33.424;-70.614;2023-02-22T04:06:18;14.40;99.90
7349;DHT22;13010;-33.424;-70.614;2023-02-22T04:09:07;14.30;99.90
7349;DHT22;13010;-33.424;-70.614;2023-02-22T04:11:59;14.30;99.90
7349;DHT22;13010;-33.424;-70.614;2023-02-22T04:14:49;14.20;99.90
7349;DHT22;13010;-33.424;-70.614;2023-02-22T04:17:39;14.10;99.90
7349;DHT22;13010;-33.424;-70.614;2023-02-22T04:20:28;14.20;99.90
7349;DHT22;13010;-33.424;-70.614;2023-02-22T04:23:17;14.00;99.90
7349;DHT22;13010;-33.424;-70.614;2023-02-22T04:26:06;14.00;99.90
7349;DHT22;13010;-33.424;-70.614;2023-02-22T04:28:55;13.60;99.90
7349;DHT22;13010;-33.424;-70.614;2023-02-22T04:31:45;13.30;99.90
7349;DHT22;13010;-33.424;-70.614;2023-02-22T04:34:36;13.40;99.90
7349;DHT22;13010;-33.424;-70.614;2023-02-22T04:37:25;14.10;99.90
7349;DHT22;13010;-33.424;-70.614;2023-02-22T04:40:15;14.40;99.90
7349;DHT22;13010;-33.424;-70.614;2023-02-22T04:43:04;14.30;99.90
7349;DHT22;13010;-33.424;-70.614;2023-02-22T04:45:53;14.20;99.90
7349;DHT22;13010;-33.424;-70.614;2023-02-22T04:48:42;14.00;99.90
7349;DHT22;13010;-33.424;-70.614;2023-02-22T04:51:32;13.90;99.90
7349;DHT22;13010;-33.424;-70.614;2023-02-22T04:54:21;13.70;99.90
7349;DHT22;13010;-33.424;-70.614;2023-02-22T04:57:10;13.40;99.90
7349;DHT22;13010;-33.424;-70.614;2023-02-22T04:59:59;13.40;99.90
7349;DHT22;13010;-33.424;-70.614;2023-02-22T05:02:50;13.20;99.90
7349;DHT22;13010;-33.424;-70.614;2023-02-22T05:05:39;13.30;99.90
7349;DHT22;13010;-33.424;-70.614;2023-02-22T05:08:29;13.40;99.90
7349;DHT22;13010;-33.424;-70.614;2023-02-22T05:11:18;13.10;99.90
7349;DHT22;13010;-33.424;-70.614;2023-02-22T05:14:07;12.90;99.90
7349;DHT22;13010;-33.424;-70.614;2023-02-22T05:16:56;13.10;99.90
7349;DHT22;13010;-33.424;-70.614;2023-02-22T05:19:45;13.70;99.90
7349;DHT22;13010;-33.424;-70.614;2023-02-22T05:22:35;13.50;99.90
7349;DHT22;13010;-33.424;-70.614;2023-02-22T05:25:26;13.40;99.90
7349;DHT22;13010;-33.424;-70.614;2023-02-22T05:28:15;13.90;99.90
7349;DHT22;13010;-33.424;-70.614;2023-02-22T05:31:04;13.50;99.90
7349;DHT22;13010;-33.424;-70.614;2023-02-22T05:33:53;13.30;99.90
7349;DHT22;13010;-33.424;-70.614;2023-02-22T05:36:43;12.90;99.90
7349;DHT22;13010;-33.424;-70.614;2023-02-22T05:39:32;13.10;99.90
7349;DHT22;13010;-33.424;-70.614;2023-02-22T05:42:22;13.00;99.90
7349;DHT22;13010;-33.424;-70.614;2023-02-22T05:45:13;12.80;99.90
7349;DHT22;13010;-33.424;-70.614;2023-02-22T05:48:02;12.50;99.90
7349;DHT22;13010;-33.424;-70.614;2023-02-22T05:50:51;12.60;99.90
7349;DHT22;13010;-33.424;-70.614;2023-02-22T05:53:41;12.30;99.90
7349;DHT22;13010;-33.424;-70.614;2023-02-22T05:56:31;12.10;99.90
7349;DHT22;13010;-33.424;-70.614;2023-02-22T05:59:23;11.90;99.90
7349;DHT22;13010;-33.424;-70.614;2023-02-22T06:02:13;11.70;99.90
7349;DHT22;13010;-33.424;-70.614;2023-02-22T06:05:01;11.70;99.90
7349;DHT22;13010;-33.424;-70.614;2023-02-22T06:07:51;11.60;99.90
7349;DHT22;13010;-33.424;-70.614;2023-02-22T06:10:40;12.00;99.90
7349;DHT22;13010;-33.424;-70.614;2023-02-22T06:13:29;11.90;99.90
7349;DHT22;13010;-33.424;-70.614;2023-02-22T06:16:22;12.00;99.90
7349;DHT22;13010;-33.424;-70.614;2023-02-22T06:19:10;11.70;99.90
7349;DHT22;13010;-33.424;-70.614;2023-02-22T06:21:59;11.90;99.90
7349;DHT22;13010;-33.424;-70.614;2023-02-22T06:24:48;12.20;99.90
7349;DHT22;13010;-33.424;-70.614;2023-02-22T06:27:37;12.30;99.90
7349;DHT22;13010;-33.424;-70.614;2023-02-22T06:30:26;12.20;99.90
7349;DHT22;13010;-33.424;-70.614;2023-02-22T06:33:17;12.10;99.90
7349;DHT22;13010;-33.424;-70.614;2023-02-22T06:36:07;13.00;99.90
7349;DHT22;13010;-33.424;-70.614;2023-02-22T06:38:57;12.80;99.90
7349;DHT22;13010;-33.424;-70.614;2023-02-22T06:41:46;12.40;99.90
7349;DHT22;13010;-33.424;-70.614;2023-02-22T06:44:36;12.30;99.90
7349;DHT22;13010;-33.424;-70.614;2023-02-22T06:47:25;12.60;99.90
7349;DHT22;13010;-33.424;-70.614;2023-02-22T06:50:21;12.60;99.90
7349;DHT22;13010;-33.424;-70.614;2023-02-22T06:53:10;12.50;99.90
7349;DHT22;13010;-33.424;-70.614;2023-02-22T06:55:59;12.50;99.90
7349;DHT22;13010;-33.424;-70.614;2023-02-22T06:58:48;12.40;99.90
7349;DHT22;13010;-33.424;-70.614;2023-02-22T07:01:39;12.40;99.90
7349;DHT22;13010;-33.424;-70.614;2023-02-22T07:04:29;12.40;99.90
7349;DHT22;13010;-33.424;-70.614;2023-02-22T07:07:22;12.70;99.90
7349;DHT22;13010;-33.424;-70.614;2023-02-22T07:10:17;13.00;99.90
7349;DHT22;13010;-33.424;-70.614;2023-02-22T07:13:08;12.80;99.90
7349;DHT22;13010;-33.424;-70.614;2023-02-22T07:15:57;12.40;99.90
7349;DHT22;13010;-33.424;-70.614;2023-02-22T07:18:46;12.10;99.90
7349;DHT22;13010;-33.424;-70.614;2023-02-22T07:21:35;11.80;99.90
7349;DHT22;13010;-33.424;-70.614;2023-02-22T07:24:26;11.90;99.90
7349;DHT22;13010;-33.424;-70.614;2023-02-22T07:27:15;11.80;99.90
7349;DHT22;13010;-33.424;-70.614;2023-02-22T07:30:05;11.70;99.90
7349;DHT22;13010;-33.424;-70.614;2023-02-22T07:32:55;11.60;99.90
7349;DHT22;13010;-33.424;-70.614;2023-02-22T07:35:47;11.50;99.90
7349;DHT22;13010;-33.424;-70.614;2023-02-22T07:38:36;11.80;99.90
7349;DHT22;13010;-33.424;-70.614;2023-02-22T07:41:27;12.00;99.90
7349;DHT22;13010;-33.424;-70.614;2023-02-22T07:44:15;11.90;99.90
7349;DHT22;13010;-33.424;-70.614;2023-02-22T07:47:05;11.70;99.90
7349;DHT22;13010;-33.424;-70.614;2023-02-22T07:49:56;11.50;99.90
7349;DHT22;13010;-33.424;-70.614;2023-02-22T07:52:46;11.10;99.90
7349;DHT22;13010;-33.424;-70.614;2023-02-22T07:55:35;10.70;99.90
7349;DHT22;13010;-33.424;-70.614;2023-02-22T07:58:27;10.40;99.90
7349;DHT22;13010;-33.424;-70.614;2023-02-22T08:01:31;10.20;99.90
7349;DHT22;13010;-33.424;-70.614;2023-02-22T08:04:20;10.40;99.90
7349;DHT22;13010;-33.424;-70.614;2023-02-22T08:07:09;10.20;99.90
7349;DHT22;13010;-33.424;-70.614;2023-02-22T08:09:59;10.20;99.90
7349;DHT22;13010;-33.424;-70.614;2023-02-22T08:12:52;10.30;99.90
7349;DHT22;13010;-33.424;-70.614;2023-02-22T08:15:43;10.10;99.90
7349;DHT22;13010;-33.424;-70.614;2023-02-22T08:18:32;10.30;99.90
7349;DHT22;13010;-33.424;-70.614;2023-02-22T08:21:22;10.60;99.90
7349;DHT22;13010;-33.424;-70.614;2023-02-22T08:24:13;10.90;99.90
7349;DHT22;13010;-33.424;-70.614;2023-02-22T08:27:02;11.10;99.90
7349;DHT22;13010;-33.424;-70.614;2023-02-22T08:29:50;11.10;99.90
7349;DHT22;13010;-33.424;-70.614;2023-02-22T08:32:41;11.00;99.90
7349;DHT22;13010;-33.424;-70.614;2023-02-22T08:35:31;10.80;99.90
7349;DHT22;13010;-33.424;-70.614;2023-02-22T08:38:22;10.30;99.90
7349;DHT22;13010;-33.424;-70.614;2023-02-22T08:41:11;10.00;99.90
7349;DHT22;13010;-33.424;-70.614;2023-02-22T08:44:00;9.90;99.90
7349;DHT22;13010;-33.424;-70.614;2023-02-22T08:46:48;9.70;99.90
7349;DHT22;13010;-33.424;-70.614;2023-02-22T08:49:39;9.50;99.90
7349;DHT22;13010;-33.424;-70.614;2023-02-22T08:52:27;9.30;99.90
7349;DHT22;13010;-33.424;-70.614;2023-02-22T08:55:19;9.20;99.90
7349;DHT22;13010;-33.424;-70.614;2023-02-22T08:58:09;9.60;99.90
7349;DHT22;13010;-33.424;-70.614;2023-02-22T09:00:58;9.80;99.90
7349;DHT22;13010;-33.424;-70.614;2023-02-22T09:03:48;10.00;99.90
7349;DHT22;13010;-33.424;-70.614;2023-02-22T09:06:40;9.80;99.90
7349;DHT22;13010;-33.424;-70.614;2023-02-22T09:09:33;9.70;99.90
7349;DHT22;13010;-33.424;-70.614;2023-02-22T09:12:22;9.70;99.90
7349;DHT22;13010;-33.424;-70.614;2023-02-22T09:15:11;9.80;99.90
7349;DHT22;13010;-33.424;-70.614;2023-02-22T09:18:00;9.90;99.90
7349;DHT22;13010;-33.424;-70.614;2023-02-22T09:20:49;9.90;99.90
7349;DHT22;13010;-33.424;-70.614;2023-02-22T09:23:42;10.10;99.90
7349;DHT22;13010;-33.424;-70.614;2023-02-22T09:26:30;10.30;99.90
7349;DHT22;13010;-33.424;-70.614;2023-02-22T09:29:20;10.30;99.90
7349;DHT22;13010;-33.424;-70.614;2023-02-22T09:32:09;10.30;99.90
7349;DHT22;13010;-33.424;-70.614;2023-02-22T09:35:01;10.40;99.90
7349;DHT22;13010;-33.424;-70.614;2023-02-22T09:37:50;10.30;99.90
7349;DHT22;13010;-33.424;-70.614;2023-02-22T09:40:45;10.30;99.90
7349;DHT22;13010;-33.424;-70.614;2023-02-22T09:43:38;10.20;99.90
7349;DHT22;13010;-33.424;-70.614;2023-02-22T09:46:31;10.10;99.90
7349;DHT22;13010;-33.424;-70.614;2023-02-22T09:49:26;9.70;99.90
7349;DHT22;13010;-33.424;-70.614;2023-02-22T09:52:20;9.60;99.90
7349;DHT22;13010;-33.424;-70.614;2023-02-22T09:55:23;9.90;99.90
7349;DHT22;13010;-33.424;-70.614;2023-02-22T09:58:21;10.00;99.90
7349;DHT22;13010;-33.424;-70.614;2023-02-22T10:01:19;10.10;99.90
7349;DHT22;13010;-33.424;-70.614;2023-02-22T10:04:15;10.20;99.90
7349;DHT22;13010;-33.424;-70.614;2023-02-22T10:07:17;10.20;99.90
7349;DHT22;13010;-33.424;-70.614;2023-02-22T10:10:09;10.20;99.90
7349;DHT22;13010;-33.424;-70.614;2023-02-22T10:13:08;10.30;99.90
7349;DHT22;13010;-33.424;-70.614;2023-02-22T10:16:07;10.20;99.90
7349;DHT22;13010;-33.424;-70.614;2023-02-22T10:19:20;10.20;99.90
7349;DHT22;13010;-33.424;-70.614;2023-02-22T10:22:42;10.10;99.90
7349;DHT22;13010;-33.424;-70.614;2023-02-22T10:25:36;10.20;99.90
7349;DHT22;13010;-33.424;-70.614;2023-02-22T10:28:27;10.20;99.90
7349;DHT22;13010;-33.424;-70.614;2023-02-22T10:31:24;10.00;99.90
7349;DHT22;13010;-33.424;-70.614;2023-02-22T10:34:15;9.70;99.90
7349;DHT22;13010;-33.424;-70.614;2023-02-22T10:37:21;10.00;99.90
7349;DHT22;13010;-33.424;-70.614;2023-02-22T10:40:14;10.00;99.90
7349;DHT22;13010;-33.424;-70.614;2023-02-22T10:43:07;10.00;99.90
7349;DHT22;13010;-33.424;-70.614;2023-02-22T10:45:58;9.90;99.90
7349;DHT22;13010;-33.424;-70.614;2023-02-22T10:48:51;9.80;99.90
7349;DHT22;13010;-33.424;-70.614;2023-02-22T10:51:43;9.80;99.90
7349;DHT22;13010;-33.424;-70.614;2023-02-22T10:54:35;10.20;99.90
7349;DHT22;13010;-33.424;-70.614;2023-02-22T10:57:26;10.20;99.90
7349;DHT22;13010;-33.424;-70.614;2023-02-22T11:00:19;10.30;99.90
7349;DHT22;13010;-33.424;-70.614;2023-02-22T11:03:17;10.70;99.90
7349;DHT22;13010;-33.424;-70.614;2023-02-22T11:06:22;11.00;99.90
7349;DHT22;13010;-33.424;-70.614;2023-02-22T11:09:13;11.20;99.90
7349;DHT22;13010;-33.424;-70.614;2023-02-22T11:12:17;11.30;99.90
7349;DHT22;13010;-33.424;-70.614;2023-02-22T11:15:38;11.60;99.90
7349;DHT22;13010;-33.424;-70.614;2023-02-22T11:18:29;11.90;99.90
7349;DHT22;13010;-33.424;-70.614;2023-02-22T11:21:24;12.20;99.90
7349;DHT22;13010;-33.424;-70.614;2023-02-22T11:24:16;12.40;99.90
7349;DHT22;13010;-33.424;-70.614;2023-02-22T11:27:05;12.60;99.90
7349;DHT22;13010;-33.424;-70.614;2023-02-22T11:29:56;12.70;99.90
7349;DHT22;13010;-33.424;-70.614;2023-02-22T11:32:48;13.10;99.90
7349;DHT22;13010;-33.424;-70.614;2023-02-22T11:35:39;13.50;99.90
7349;DHT22;13010;-33.424;-70.614;2023-02-22T11:38:39;13.80;99.90
7349;DHT22;13010;-33.424;-70.614;2023-02-22T11:41:40;16.40;99.90
7349;DHT22;13010;-33.424;-70.614;2023-02-22T11:44:31;17.00;99.90
7349;DHT22;13010;-33.424;-70.614;2023-02-22T11:47:20;18.90;99.90
7349;DHT22;13010;-33.424;-70.614;2023-02-22T11:50:19;22.40;99.90
7349;DHT22;13010;-33.424;-70.614;2023-02-22T11:53:37;24.30;99.90
7349;DHT22;13010;-33.424;-70.614;2023-02-22T11:56:36;24.80;99.90
7349;DHT22;13010;-33.424;-70.614;2023-02-22T11:59:34;25.80;99.90
7349;DHT22;13010;-33.424;-70.614;2023-02-22T12:02:32;27.20;95.80
7349;DHT22;13010;-33.424;-70.614;2023-02-22T12:05:35;27.20;88.30
7349;DHT22;13010;-33.424;-70.614;2023-02-22T12:08:33;28.90;79.40
7349;DHT22;13010;-33.424;-70.614;2023-02-22T12:11:29;28.90;70.70
7349;DHT22;13010;-33.424;-70.614;2023-02-22T12:14:27;30.90;58.30
7349;DHT22;13010;-33.424;-70.614;2023-02-22T12:17:27;31.30;50.80
7349;DHT22;13010;-33.424;-70.614;2023-02-22T12:20:20;31.80;47.30
7349;DHT22;13010;-33.424;-70.614;2023-02-22T12:23:16;29.90;48.30
7349;DHT22;13010;-33.424;-70.614;2023-02-22T12:26:10;30.50;46.90
7349;DHT22;13010;-33.424;-70.614;2023-02-22T12:29:05;29.50;48.40
7349;DHT22;13010;-33.424;-70.614;2023-02-22T12:32:02;32.50;44.20
7349;DHT22;13010;-33.424;-70.614;2023-02-22T12:34:54;33.10;37.30
7349;DHT22;13010;-33.424;-70.614;2023-02-22T12:37:53;33.20;37.10
7349;DHT22;13010;-33.424;-70.614;2023-02-22T12:40:51;33.90;29.90
7349;DHT22;13010;-33.424;-70.614;2023-02-22T12:43:48;33.30;31.00
7349;DHT22;13010;-33.424;-70.614;2023-02-22T12:46:41;33.70;30.00
7349;DHT22;13010;-33.424;-70.614;2023-02-22T12:49:37;33.40;29.90
7349;DHT22;13010;-33.424;-70.614;2023-02-22T12:52:38;31.20;35.30
7349;DHT22;13010;-33.424;-70.614;2023-02-22T12:55:33;35.10;28.90
7349;DHT22;13010;-33.424;-70.614;2023-02-22T12:58:28;35.40;25.70
7349;DHT22;13010;-33.424;-70.614;2023-02-22T13:01:19;30.70;31.20
7349;DHT22;13010;-33.424;-70.614;2023-02-22T13:04:09;30.80;34.20
7349;DHT22;13010;-33.424;-70.614;2023-02-22T13:07:17;33.20;31.10
7349;DHT22;13010;-33.424;-70.614;2023-02-22T13:13:37;32.40;29.50
7349;DHT22;13010;-33.424;-70.614;2023-02-22T13:16:40;32.80;30.50
7349;DHT22;13010;-33.424;-70.614;2023-02-22T13:19:43;35.70;27.30
7349;DHT22;13010;-33.424;-70.614;2023-02-22T13:22:40;36.70;23.10
7349;DHT22;13010;-33.424;-70.614;2023-02-22T13:25:36;37.10;21.20
7349;DHT22;13010;-33.424;-70.614;2023-02-22T13:28:32;36.40;22.00
7349;DHT22;13010;-33.424;-70.614;2023-02-22T13:31:41;35.90;21.90
7349;DHT22;13010;-33.424;-70.614;2023-02-22T13:34:56;36.20;22.10
7349;DHT22;13010;-33.424;-70.614;2023-02-22T13:41:28;40.50;17.60
7349;DHT22;13010;-33.424;-70.614;2023-02-22T13:48:07;37.50;17.80
7349;DHT22;13010;-33.424;-70.614;2023-02-22T13:54:44;36.80;15.40
7349;DHT22;13010;-33.424;-70.614;2023-02-22T13:57:37;39.80;13.60
7349;DHT22;13010;-33.424;-70.614;2023-02-22T14:00:45;39.00;14.10
7349;DHT22;13010;-33.424;-70.614;2023-02-22T14:03:36;40.90;14.50
7349;DHT22;13010;-33.424;-70.614;2023-02-22T14:06:37;41.50;12.70
7349;DHT22;13010;-33.424;-70.614;2023-02-22T14:09:46;41.30;11.80
7349;DHT22;13010;-33.424;-70.614;2023-02-22T14:12:48;40.50;11.70
7349;DHT22;13010;-33.424;-70.614;2023-02-22T14:16:19;41.80;10.80
7349;DHT22;13010;-33.424;-70.614;2023-02-22T14:19:15;39.50;12.50
7349;DHT22;13010;-33.424;-70.614;2023-02-22T14:22:05;36.90;14.30
7349;DHT22;13010;-33.424;-70.614;2023-02-22T14:24:59;38.90;13.60
7349;DHT22;13010;-33.424;-70.614;2023-02-22T14:27:48;38.60;12.80
7349;DHT22;13010;-33.424;-70.614;2023-02-22T14:30:39;40.30;12.60
7349;DHT22;13010;-33.424;-70.614;2023-02-22T14:33:50;42.30;11.80
7349;DHT22;13010;-33.424;-70.614;2023-02-22T14:36:45;46.90;7.60
7349;DHT22;13010;-33.424;-70.614;2023-02-22T14:39:37;44.50;8.50
7349;DHT22;13010;-33.424;-70.614;2023-02-22T14:42:33;45.50;7.20
7349;DHT22;13010;-33.424;-70.614;2023-02-22T14:45:28;43.50;8.30
7349;DHT22;13010;-33.424;-70.614;2023-02-22T14:48:27;45.90;7.40
7349;DHT22;13010;-33.424;-70.614;2023-02-22T14:51:26;45.30;6.70
7349;DHT22;13010;-33.424;-70.614;2023-02-22T14:54:29;42.20;8.10
7349;DHT22;13010;-33.424;-70.614;2023-02-22T14:57:26;42.00;7.40
7349;DHT22;13010;-33.424;-70.614;2023-02-22T15:00:21;39.70;9.10
7349;DHT22;13010;-33.424;-70.614;2023-02-22T15:03:24;39.20;8.40
7349;DHT22;13010;-33.424;-70.614;2023-02-22T15:06:20;41.50;8.50
7349;DHT22;13010;-33.424;-70.614;2023-02-22T15:09:14;42.40;7.90
7349;DHT22;13010;-33.424;-70.614;2023-02-22T15:12:15;44.50;6.90
7349;DHT22;13010;-33.424;-70.614;2023-02-22T15:15:15;42.50;6.00
7349;DHT22;13010;-33.424;-70.614;2023-02-22T15:18:19;42.90;7.10
7349;DHT22;13010;-33.424;-70.614;2023-02-22T15:21:10;43.00;5.40
7349;DHT22;13010;-33.424;-70.614;2023-02-22T15:24:03;46.90;4.30
7349;DHT22;13010;-33.424;-70.614;2023-02-22T15:26:53;48.10;4.10
7349;DHT22;13010;-33.424;-70.614;2023-02-22T15:29:43;47.10;3.00
7349;DHT22;13010;-33.424;-70.614;2023-02-22T15:32:34;47.60;2.40
7349;DHT22;13010;-33.424;-70.614;2023-02-22T15:35:31;45.30;3.70
7349;DHT22;13010;-33.424;-70.614;2023-02-22T15:38:27;44.00;3.60
7349;DHT22;13010;-33.424;-70.614;2023-02-22T15:41:25;44.50;4.80
7349;DHT22;13010;-33.424;-70.614;2023-02-22T15:44:14;44.10;5.20
7349;DHT22;13010;-33.424;-70.614;2023-02-22T15:47:04;43.80;4.90
7349;DHT22;13010;-33.424;-70.614;2023-02-22T15:50:15;41.50;5.10
7349;DHT22;13010;-33.424;-70.614;2023-02-22T15:53:24;43.10;5.60
7349;DHT22;13010;-33.424;-70.614;2023-02-22T15:56:16;45.40;3.80
7349;DHT22;13010;-33.424;-70.614;2023-02-22T15:59:09;45.20;4.10
7349;DHT22;13010;-33.424;-70.614;2023-02-22T16:02:00;44.90;3.20
7349;DHT22;13010;-33.424;-70.614;2023-02-22T16:04:49;46.40;2.30
7349;DHT22;13010;-33.424;-70.614;2023-02-22T16:07:46;46.70;2.20
7349;DHT22;13010;-33.424;-70.614;2023-02-22T16:10:38;45.50;1.90
7349;DHT22;13010;-33.424;-70.614;2023-02-22T16:13:30;44.90;2.10
7349;DHT22;13010;-33.424;-70.614;2023-02-22T16:16:28;43.50;3.90
7349;DHT22;13010;-33.424;-70.614;2023-02-22T16:19:34;44.00;3.40
7349;DHT22;13010;-33.424;-70.614;2023-02-22T16:22:27;44.40;2.80
7349;DHT22;13010;-33.424;-70.614;2023-02-22T16:25:30;45.40;1.30
7349;DHT22;13010;-33.424;-70.614;2023-02-22T16:28:28;44.10;2.60
7349;DHT22;13010;-33.424;-70.614;2023-02-22T16:31:21;43.70;2.70
7349;DHT22;13010;-33.424;-70.614;2023-02-22T16:34:10;43.10;3.60
7349;DHT22;13010;-33.424;-70.614;2023-02-22T16:37:02;43.60;2.60
7349;DHT22;13010;-33.424;-70.614;2023-02-22T16:39:51;42.80;3.10
7349;DHT22;13010;-33.424;-70.614;2023-02-22T16:42:41;41.00;3.80
7349;DHT22;13010;-33.424;-70.614;2023-02-22T16:45:33;40.50;4.30
7349;DHT22;13010;-33.424;-70.614;2023-02-22T16:48:24;40.50;5.40
7349;DHT22;13010;-33.424;-70.614;2023-02-22T16:51:20;39.80;5.50
7349;DHT22;13010;-33.424;-70.614;2023-02-22T16:54:11;39.10;6.70
7349;DHT22;13010;-33.424;-70.614;2023-02-22T16:57:01;41.10;4.80
7349;DHT22;13010;-33.424;-70.614;2023-02-22T16:59:50;41.40;4.50
7349;DHT22;13010;-33.424;-70.614;2023-02-22T17:02:42;39.00;6.00
7349;DHT22;13010;-33.424;-70.614;2023-02-22T17:05:32;39.40;6.10
7349;DHT22;13010;-33.424;-70.614;2023-02-22T17:08:22;40.60;5.90
7349;DHT22;13010;-33.424;-70.614;2023-02-22T17:11:12;43.00;4.20
7349;DHT22;13010;-33.424;-70.614;2023-02-22T17:14:02;41.40;5.20
7349;DHT22;13010;-33.424;-70.614;2023-02-22T17:16:52;41.30;5.20
7349;DHT22;13010;-33.424;-70.614;2023-02-22T17:19:42;41.70;5.30
7349;DHT22;13010;-33.424;-70.614;2023-02-22T17:22:31;39.40;6.50
7349;DHT22;13010;-33.424;-70.614;2023-02-22T17:25:21;41.30;6.80
7349;DHT22;13010;-33.424;-70.614;2023-02-22T17:28:11;41.60;7.20
7349;DHT22;13010;-33.424;-70.614;2023-02-22T17:31:00;41.90;5.40
7349;DHT22;13010;-33.424;-70.614;2023-02-22T17:33:49;41.50;6.00
7349;DHT22;13010;-33.424;-70.614;2023-02-22T17:36:40;40.50;6.40
7349;DHT22;13010;-33.424;-70.614;2023-02-22T17:39:29;40.60;5.40
7349;DHT22;13010;-33.424;-70.614;2023-02-22T17:42:18;41.60;4.30
7349;DHT22;13010;-33.424;-70.614;2023-02-22T17:45:08;41.80;4.30
7349;DHT22;13010;-33.424;-70.614;2023-02-22T17:47:59;39.10;6.40
7349;DHT22;13010;-33.424;-70.614;2023-02-22T17:50:48;38.80;7.30
7349;DHT22;13010;-33.424;-70.614;2023-02-22T17:53:39;40.10;6.80
7349;DHT22;13010;-33.424;-70.614;2023-02-22T17:56:28;42.10;5.80
7349;DHT22;13010;-33.424;-70.614;2023-02-22T17:59:17;42.30;5.80